createdAt,value
2019-03-13T00:01:45.092Z,48.60
2019-03-13T00:04:15.264Z,49.00
2019-03-13T00:06:45.506Z,50.10
2019-03-13T00:09:15.792Z,50.50
2019-03-13T00:11:46.043Z,50.90
2019-03-13T00:14:16.383Z,51.30
2019-03-13T00:16:46.624Z,51.60
2019-03-13T00:19:16.950Z,52.60
2019-03-13T00:21:47.159Z,53.00
2019-03-13T00:24:17.470Z,54.20
2019-03-13T00:26:47.740Z,55.10
2019-03-13T00:29:18.460Z,54.80
2019-03-13T00:31:48.859Z,54.70
2019-03-13T00:34:19.163Z,54.60
2019-03-13T00:36:49.442Z,54.30
2019-03-13T00:39:19.595Z,54.40
2019-03-13T00:41:49.913Z,54.50
2019-03-13T00:44:20.161Z,54.40
2019-03-13T00:46:50.424Z,54.80
2019-03-13T00:49:20.608Z,54.80
2019-03-13T00:51:50.907Z,54.90
2019-03-13T00:54:21.158Z,55.40
2019-03-13T00:56:51.425Z,55.40
2019-03-13T00:59:21.775Z,55.70
2019-03-13T01:02:00.798Z,55.70
2019-03-13T01:04:41.578Z,55.60
2019-03-13T01:07:12.410Z,55.50
2019-03-13T01:09:42.590Z,55.70
2019-03-13T01:12:12.871Z,56.00
2019-03-13T01:14:43.119Z,55.70
2019-03-13T01:17:13.411Z,54.50
2019-03-13T01:19:43.591Z,55.30
2019-03-13T01:22:13.914Z,54.10
2019-03-13T01:24:44.148Z,54.90
2019-03-13T01:27:14.343Z,54.70
2019-03-13T01:29:44.709Z,55.60
2019-03-13T01:32:43.020Z,55.60
2019-03-13T01:35:31.253Z,55.70
2019-03-13T01:38:01.560Z,55.50
2019-03-13T01:40:31.846Z,55.10
2019-03-13T01:43:02.174Z,56.10
2019-03-13T01:45:32.596Z,57.10
2019-03-13T01:48:02.909Z,57.60
2019-03-13T01:50:33.256Z,58.00
2019-03-13T01:53:03.524Z,57.90
2019-03-13T01:55:33.701Z,59.00
2019-03-13T01:58:04.022Z,59.30
2019-03-13T02:00:34.355Z,59.90
2019-03-13T02:03:04.675Z,59.90
2019-03-13T02:05:34.815Z,62.60
2019-03-13T02:08:05.087Z,64.30
2019-03-13T02:10:35.254Z,66.60
2019-03-13T02:13:05.475Z,67.20
2019-03-13T02:15:35.765Z,74.00
2019-03-13T02:18:05.915Z,85.90
2019-03-13T02:20:36.255Z,88.10
2019-03-13T02:23:06.453Z,88.30
2019-03-13T02:25:36.807Z,95.60
2019-03-13T02:28:06.967Z,93.40
2019-03-13T02:30:37.290Z,91.90
2019-03-13T02:33:07.452Z,94.50
2019-03-13T02:35:37.784Z,95.00
2019-03-13T02:38:08.008Z,95.60
2019-03-13T02:40:38.320Z,92.50
2019-03-13T02:43:08.479Z,94.70
2019-03-13T02:45:38.747Z,91.30
2019-03-13T02:48:09.066Z,91.40
2019-03-13T02:50:39.275Z,92.20
2019-03-13T02:53:09.582Z,91.30
2019-03-13T02:55:39.789Z,92.60
2019-03-13T02:58:10.042Z,92.70
2019-03-13T03:00:55.955Z,91.00
2019-03-13T03:03:32.219Z,93.50
2019-03-13T03:06:02.465Z,94.30
2019-03-13T03:08:32.632Z,94.60
2019-03-13T03:11:02.832Z,93.00
2019-03-13T03:13:33.086Z,90.60
2019-03-13T03:16:03.407Z,90.70
2019-03-13T03:18:33.672Z,91.20
2019-03-13T03:21:03.940Z,90.80
2019-03-13T03:23:34.274Z,91.70
2019-03-13T03:26:04.554Z,91.50
2019-03-13T03:28:34.842Z,92.60
2019-03-13T03:31:05.239Z,92.10
2019-03-13T03:33:35.509Z,90.30
2019-03-13T03:36:05.910Z,92.70
2019-03-13T03:38:36.265Z,93.00
2019-03-13T03:41:06.570Z,93.50
2019-03-13T03:43:40.604Z,93.00
2019-03-13T03:46:08.677Z,93.50
2019-03-13T03:48:38.978Z,93.60
2019-03-13T03:51:09.195Z,91.90
2019-03-13T03:53:39.494Z,92.80
2019-03-13T03:56:09.649Z,91.00
2019-03-13T03:58:40.483Z,90.20
2019-03-13T04:01:10.724Z,88.40
2019-03-13T04:03:40.941Z,89.80
2019-03-13T04:06:11.213Z,90.50
2019-03-13T04:08:41.739Z,89.50
2019-03-13T04:11:12.168Z,88.30
2019-03-13T04:13:44.623Z,88.10
2019-03-13T04:16:14.353Z,87.40
2019-03-13T04:18:44.573Z,89.30
2019-03-13T04:21:14.781Z,89.20
2019-03-13T04:23:44.949Z,88.50
2019-03-13T04:26:15.382Z,92.20
2019-03-13T04:28:45.611Z,90.30
2019-03-13T04:31:15.968Z,93.30
2019-03-13T04:33:46.219Z,92.60
2019-03-13T04:36:16.514Z,91.40
2019-03-13T04:38:46.763Z,91.00
2019-03-13T04:41:17.071Z,94.40
2019-03-13T04:43:47.248Z,93.10
2019-03-13T04:46:17.546Z,92.10
2019-03-13T04:48:47.718Z,91.70
2019-03-13T04:51:17.919Z,92.80
2019-03-13T04:53:48.236Z,92.70
2019-03-13T04:56:18.586Z,91.10
2019-03-13T04:58:48.886Z,93.50
2019-03-13T05:01:19.049Z,92.80
2019-03-13T05:03:49.576Z,92.20
2019-03-13T05:06:23.734Z,91.30
2019-03-13T05:09:04.426Z,92.30
2019-03-13T05:11:34.690Z,91.10
2019-03-13T05:14:04.958Z,90.40
2019-03-13T05:16:35.152Z,90.00
2019-03-13T05:19:05.426Z,90.90
2019-03-13T05:21:35.654Z,91.80
2019-03-13T05:24:06.054Z,91.50
2019-03-13T05:26:36.426Z,94.40
2019-03-13T05:29:06.656Z,92.70
2019-03-13T05:31:37.020Z,93.00
2019-03-13T05:34:07.217Z,94.90
2019-03-13T05:36:37.608Z,95.00
2019-03-13T05:39:08.290Z,95.70
2019-03-13T05:41:38.647Z,96.00
2019-03-13T05:44:08.849Z,97.40
2019-03-13T05:46:39.176Z,96.00
2019-03-13T05:49:09.473Z,94.50
2019-03-13T05:51:40.064Z,98.80
2019-03-13T05:54:10.271Z,94.80
2019-03-13T05:56:40.976Z,96.90
2019-03-13T05:59:11.377Z,97.90
2019-03-13T06:01:41.544Z,97.00
2019-03-13T06:04:11.766Z,95.10
2019-03-13T06:06:42.066Z,98.10
2019-03-13T06:09:12.342Z,98.00
2019-03-13T06:11:42.552Z,96.20
2019-03-13T06:14:12.855Z,95.90
2019-03-13T06:16:43.077Z,94.10
2019-03-13T06:19:13.346Z,96.30
2019-03-13T06:21:43.544Z,96.70
2019-03-13T06:24:13.878Z,95.50
2019-03-13T06:26:44.094Z,97.50
2019-03-13T06:29:14.257Z,97.20
2019-03-13T06:31:44.574Z,96.60
2019-03-13T06:34:14.810Z,95.50
2019-03-13T06:36:45.181Z,96.90
2019-03-13T06:39:15.361Z,97.30
2019-03-13T06:41:45.667Z,97.10
2019-03-13T06:44:15.973Z,96.00
2019-03-13T06:46:46.310Z,95.50
2019-03-13T06:49:16.505Z,96.20
2019-03-13T06:51:46.673Z,95.40
2019-03-13T06:54:16.852Z,96.70
2019-03-13T06:56:47.200Z,96.20
2019-03-13T06:59:28.137Z,96.60
2019-03-13T07:02:13.752Z,95.60
2019-03-13T07:05:03.872Z,95.80
2019-03-13T07:07:55.921Z,95.60
2019-03-13T07:10:40.377Z,95.30
2019-03-13T07:13:44.743Z,96.40
2019-03-13T07:16:21.125Z,94.50
2019-03-13T07:19:10.405Z,95.90
2019-03-13T07:22:12.005Z,95.70
2019-03-13T07:25:07.080Z,95.90
2019-03-13T07:27:56.371Z,94.50
2019-03-13T07:30:38.220Z,94.70
2019-03-13T07:33:26.305Z,94.40
2019-03-13T07:36:03.691Z,95.00
2019-03-13T07:38:40.567Z,94.20
2019-03-13T07:41:25.762Z,94.60
2019-03-13T07:44:09.281Z,94.20
2019-03-13T07:47:05.309Z,93.50
2019-03-13T07:50:03.508Z,93.00
2019-03-13T07:52:52.878Z,92.80
2019-03-13T07:55:49.611Z,92.40
2019-03-13T07:58:36.181Z,91.70
2019-03-13T08:01:22.849Z,92.00
2019-03-13T08:04:11.227Z,91.30
2019-03-13T08:06:58.579Z,90.70
2019-03-13T08:09:53.883Z,91.20
2019-03-13T08:12:48.995Z,90.90
2019-03-13T08:15:47.642Z,91.30
2019-03-13T08:18:28.541Z,91.10
2019-03-13T08:21:16.698Z,90.70
2019-03-13T08:24:15.057Z,89.70
2019-03-13T08:26:51.963Z,90.40
2019-03-13T08:29:35.869Z,89.30
2019-03-13T08:32:27.870Z,86.90
2019-03-13T08:35:29.629Z,88.70
2019-03-13T08:38:21.901Z,86.90
2019-03-13T08:41:11.170Z,85.60
2019-03-13T08:44:09.490Z,85.20
2019-03-13T08:46:56.855Z,85.70
2019-03-13T08:49:34.249Z,84.20
2019-03-13T08:52:18.015Z,82.60
2019-03-13T08:55:03.965Z,84.70
2019-03-13T08:57:53.212Z,82.20
2019-03-13T09:00:45.650Z,82.60
2019-03-13T09:03:29.101Z,79.60
2019-03-13T09:06:19.704Z,80.40
2019-03-13T09:09:10.597Z,77.20
2019-03-13T09:12:06.000Z,77.40
2019-03-13T09:14:50.833Z,79.60
2019-03-13T09:17:38.765Z,78.30
2019-03-13T09:20:17.280Z,75.90
2019-03-13T09:23:05.796Z,76.80
2019-03-13T09:25:45.275Z,77.10
2019-03-13T09:28:39.019Z,76.60
2019-03-13T09:31:34.514Z,76.80
2019-03-13T09:34:19.484Z,79.20
2019-03-13T09:37:02.376Z,77.10
2019-03-13T09:39:41.382Z,76.10
2019-03-13T09:42:30.643Z,77.30
2019-03-13T09:45:30.479Z,78.30
2019-03-13T09:48:09.462Z,80.50
2019-03-13T09:50:58.684Z,81.30
2019-03-13T09:53:40.548Z,81.40
2019-03-13T09:56:27.132Z,81.70
2019-03-13T09:59:10.917Z,80.90
2019-03-13T10:01:57.366Z,81.40
2019-03-13T10:04:55.664Z,82.00
2019-03-13T10:07:31.166Z,81.90
2019-03-13T10:10:29.266Z,82.40
2019-03-13T10:13:25.384Z,81.40
2019-03-13T10:16:06.218Z,82.00
2019-03-13T10:19:01.311Z,82.70
2019-03-13T10:21:48.126Z,81.40
2019-03-13T10:24:34.614Z,82.90
2019-03-13T10:27:22.848Z,82.70
2019-03-13T10:30:21.090Z,80.60
2019-03-13T10:33:13.224Z,81.90
2019-03-13T10:36:01.182Z,82.30
2019-03-13T10:38:59.451Z,81.20
2019-03-13T10:41:47.334Z,80.50
2019-03-13T10:44:35.669Z,79.00
2019-03-13T10:47:31.147Z,81.70
2019-03-13T10:50:13.952Z,83.30
2019-03-13T10:53:21.366Z,79.50
2019-03-13T10:56:16.326Z,81.60
2019-03-13T10:58:56.912Z,79.20
2019-03-13T11:01:32.349Z,77.00
2019-03-13T11:04:27.909Z,76.80
2019-03-13T11:07:15.948Z,73.60
2019-03-13T11:09:53.231Z,74.10
2019-03-13T11:12:42.522Z,74.30
2019-03-13T11:15:19.749Z,74.60
2019-03-13T11:18:12.023Z,72.10
2019-03-13T11:21:00.287Z,72.90
2019-03-13T11:23:55.373Z,73.20
2019-03-13T11:26:56.719Z,72.60
2019-03-13T11:29:52.188Z,69.20
2019-03-13T11:32:44.183Z,70.70
2019-03-13T11:35:33.465Z,68.30
2019-03-13T11:38:28.797Z,69.80
2019-03-13T11:41:33.177Z,69.80
2019-03-13T11:44:11.503Z,71.00
2019-03-13T11:47:03.598Z,68.30
2019-03-13T11:49:52.906Z,69.00
2019-03-13T11:52:41.044Z,72.30
2019-03-13T11:55:29.492Z,70.80
2019-03-13T11:58:17.901Z,68.90
2019-03-13T12:01:22.352Z,67.80
2019-03-13T12:04:10.274Z,69.80
2019-03-13T12:06:58.363Z,68.80
2019-03-13T12:09:46.805Z,66.70
2019-03-13T12:12:36.086Z,68.00
2019-03-13T12:15:45.231Z,66.20
2019-03-13T12:18:36.576Z,68.70
2019-03-13T12:21:41.226Z,70.60
2019-03-13T12:24:33.381Z,68.80
2019-03-13T12:27:21.199Z,67.20
2019-03-13T12:30:25.920Z,68.40
2019-03-13T12:33:12.217Z,69.10
2019-03-13T12:36:00.087Z,71.10
2019-03-13T12:38:39.195Z,68.30
2019-03-13T12:41:23.152Z,68.80
2019-03-13T12:44:05.966Z,64.10
2019-03-13T12:46:57.923Z,66.00
2019-03-13T12:49:47.233Z,64.50
2019-03-13T12:52:35.284Z,66.20
2019-03-13T12:55:33.719Z,64.90
2019-03-13T12:58:19.702Z,65.10
2019-03-13T13:01:02.588Z,66.70
2019-03-13T13:03:49.735Z,65.80
2019-03-13T13:06:57.071Z,66.60
2019-03-13T13:09:45.126Z,68.40
2019-03-13T13:12:29.931Z,67.80
2019-03-13T13:15:19.151Z,67.20
2019-03-13T13:18:07.355Z,67.10
2019-03-13T13:20:37.655Z,68.50
2019-03-13T13:23:07.895Z,64.80
2019-03-13T13:25:38.224Z,65.00
2019-03-13T13:28:08.448Z,64.50
2019-03-13T13:30:38.804Z,67.70
2019-03-13T13:33:08.972Z,67.80
2019-03-13T13:35:39.222Z,67.40
2019-03-13T13:38:10.432Z,66.40
2019-03-13T13:40:40.826Z,66.20
2019-03-13T13:43:11.060Z,66.30
2019-03-13T13:45:44.595Z,64.00
2019-03-13T13:48:14.850Z,67.20
2019-03-13T13:50:45.040Z,67.20
2019-03-13T13:53:15.407Z,67.20
2019-03-13T13:55:45.748Z,68.70
2019-03-13T13:58:16.022Z,69.50
2019-03-13T14:00:46.234Z,70.10
2019-03-13T14:03:16.651Z,71.50
2019-03-13T14:05:46.894Z,73.50
2019-03-13T14:08:17.262Z,72.70
2019-03-13T14:10:47.449Z,75.10
2019-03-13T14:13:17.690Z,71.90
2019-03-13T14:15:47.874Z,63.10
2019-03-13T14:18:18.034Z,62.10
2019-03-13T14:20:48.878Z,62.00
2019-03-13T14:23:19.257Z,65.20
2019-03-13T14:25:49.533Z,65.10
2019-03-13T14:28:19.720Z,64.60
2019-03-13T14:30:49.996Z,62.90
2019-03-13T14:33:20.273Z,64.80
2019-03-13T14:35:50.618Z,66.60
2019-03-13T14:38:20.853Z,66.90
2019-03-13T14:40:51.252Z,67.10
2019-03-13T14:43:21.622Z,65.70
2019-03-13T14:45:51.763Z,66.50
2019-03-13T14:48:22.088Z,66.20
2019-03-13T14:50:52.398Z,67.20
2019-03-13T14:53:22.621Z,68.10
2019-03-13T14:55:55.619Z,67.60
2019-03-13T14:58:24.866Z,68.50
2019-03-13T15:00:55.263Z,69.20
2019-03-13T15:03:25.471Z,69.20
2019-03-13T15:05:55.815Z,69.50
2019-03-13T15:08:26.106Z,69.80
2019-03-13T15:10:56.234Z,70.00
2019-03-13T15:13:26.550Z,70.30
2019-03-13T15:15:56.841Z,71.40
2019-03-13T15:18:26.996Z,71.40
2019-03-13T15:20:57.289Z,72.00
2019-03-13T15:23:27.472Z,72.10
2019-03-13T15:25:57.763Z,71.20
2019-03-13T15:28:27.910Z,70.70
2019-03-13T15:30:58.226Z,70.60
2019-03-13T15:33:28.428Z,70.90
2019-03-13T15:35:58.739Z,70.10
2019-03-13T15:38:29.048Z,71.00
2019-03-13T15:40:59.500Z,70.50
2019-03-13T15:43:29.761Z,71.20
2019-03-13T15:46:00.101Z,70.70
2019-03-13T15:48:30.303Z,71.40
2019-03-13T15:51:00.543Z,71.90
2019-03-13T15:53:30.741Z,70.80
2019-03-13T15:56:01.031Z,70.60
2019-03-13T15:58:31.238Z,70.60
2019-03-13T16:01:01.530Z,70.00
2019-03-13T16:03:31.667Z,70.30
2019-03-13T16:06:01.867Z,70.90
2019-03-13T16:08:32.233Z,71.50
2019-03-13T16:11:02.421Z,72.10
2019-03-13T16:13:32.625Z,72.50
2019-03-13T16:16:02.854Z,72.60
2019-03-13T16:18:33.071Z,73.20
2019-03-13T16:21:03.414Z,73.80
2019-03-13T16:23:33.713Z,74.30
2019-03-13T16:26:03.957Z,74.10
2019-03-13T16:28:34.259Z,74.10
2019-03-13T16:31:04.615Z,74.20
2019-03-13T16:33:34.837Z,74.20
2019-03-13T16:36:04.999Z,74.50
2019-03-13T16:38:35.302Z,74.90
2019-03-13T16:41:05.564Z,75.60
2019-03-13T16:43:35.829Z,76.20
2019-03-13T16:46:06.136Z,75.90
2019-03-13T16:48:36.473Z,76.50
2019-03-13T16:51:06.825Z,76.00
2019-03-13T16:53:37.004Z,77.10
2019-03-13T16:56:07.345Z,77.60
2019-03-13T16:58:37.727Z,77.70
2019-03-13T17:01:07.956Z,81.00
2019-03-13T17:03:38.266Z,81.00
2019-03-13T17:06:08.493Z,85.80
2019-03-13T17:08:38.774Z,86.10
2019-03-13T17:11:09.101Z,85.10
2019-03-13T17:13:39.370Z,91.20
2019-03-13T17:16:09.672Z,90.90
2019-03-13T17:18:40.017Z,92.40
2019-03-13T17:21:10.481Z,92.80
2019-03-13T17:23:40.744Z,92.70
2019-03-13T17:26:11.077Z,95.20
2019-03-13T17:28:41.255Z,95.30
2019-03-13T17:31:11.483Z,94.90
2019-03-13T17:33:41.637Z,95.60
2019-03-13T17:36:12.436Z,95.40
2019-03-13T17:38:42.596Z,95.50
2019-03-13T17:41:12.863Z,96.90
2019-03-13T17:44:02.267Z,96.40
2019-03-13T17:46:32.572Z,94.70
2019-03-13T17:49:02.882Z,94.00
2019-03-13T17:51:33.211Z,95.00
2019-03-13T17:54:03.383Z,95.40
2019-03-13T17:56:33.686Z,96.10
2019-03-13T17:59:03.906Z,96.10
2019-03-13T18:01:34.117Z,93.80
2019-03-13T18:04:04.341Z,95.30
2019-03-13T18:06:34.566Z,96.40
2019-03-13T18:09:06.499Z,94.90
2019-03-13T18:11:36.822Z,94.20
2019-03-13T18:14:07.077Z,97.00
2019-03-13T18:16:37.281Z,97.00
2019-03-13T18:19:07.568Z,97.40
2019-03-13T18:21:40.892Z,97.20
2019-03-13T18:24:11.191Z,97.40
2019-03-13T18:26:41.447Z,98.90
2019-03-13T18:29:11.707Z,97.60
2019-03-13T18:31:41.968Z,97.30
2019-03-13T18:34:12.183Z,98.10
2019-03-13T18:36:51.843Z,96.30
2019-03-13T18:39:21.991Z,96.50
2019-03-13T18:41:52.255Z,95.90
2019-03-13T18:44:22.505Z,99.80
2019-03-13T18:46:52.859Z,99.90
2019-03-13T18:49:22.999Z,99.90
2019-03-13T18:51:53.321Z,99.60
2019-03-13T18:54:23.632Z,99.80
2019-03-13T18:56:53.958Z,99.90
2019-03-13T18:59:24.206Z,99.90
2019-03-13T19:01:54.514Z,98.50
2019-03-13T19:04:24.815Z,98.30
2019-03-13T19:06:55.003Z,98.90
2019-03-13T19:09:25.331Z,99.60
2019-03-13T19:11:55.575Z,96.60
2019-03-13T19:14:25.921Z,99.10
2019-03-13T19:16:56.265Z,99.90
2019-03-13T19:19:26.580Z,98.60
2019-03-13T19:21:56.896Z,97.80
2019-03-13T19:24:27.306Z,98.80
2019-03-13T19:26:57.546Z,99.20
2019-03-13T19:29:27.921Z,99.90
2019-03-13T19:31:58.146Z,99.90
2019-03-13T19:34:28.436Z,99.00
2019-03-13T19:36:58.753Z,98.70
2019-03-13T19:39:32.020Z,99.90
2019-03-13T19:42:01.050Z,99.90
2019-03-13T19:44:31.429Z,99.90
2019-03-13T19:47:01.687Z,99.90
2019-03-13T19:49:32.052Z,99.40
2019-03-13T19:52:02.394Z,99.90
2019-03-13T19:54:32.728Z,99.90
2019-03-13T19:57:03.054Z,99.90
2019-03-13T19:59:33.532Z,99.90
2019-03-13T20:02:03.932Z,98.70
2019-03-13T20:04:46.663Z,99.90
2019-03-13T20:07:06.197Z,99.90
2019-03-13T20:09:36.591Z,99.90
2019-03-13T20:12:06.833Z,99.90
2019-03-13T20:14:37.292Z,99.90
2019-03-13T20:17:07.518Z,99.90
2019-03-13T20:19:37.710Z,99.90
2019-03-13T20:22:08.038Z,99.90
2019-03-13T20:24:38.884Z,99.90
2019-03-13T20:27:09.218Z,99.90
2019-03-13T20:29:39.674Z,99.90
2019-03-13T20:32:09.925Z,99.90
2019-03-13T20:34:40.272Z,99.90
2019-03-13T20:37:10.675Z,99.90
2019-03-13T20:39:41.602Z,99.90
2019-03-13T20:42:11.964Z,99.90
2019-03-13T20:44:42.465Z,99.90
2019-03-13T20:47:12.861Z,99.90
2019-03-13T20:49:43.134Z,99.90
2019-03-13T20:52:13.472Z,99.90
2019-03-13T20:54:43.846Z,99.90
2019-03-13T20:57:14.230Z,99.90
2019-03-13T20:59:44.516Z,99.90
2019-03-13T21:02:14.844Z,99.90
2019-03-13T21:04:45.070Z,99.90
2019-03-13T21:07:15.361Z,99.90
2019-03-13T21:09:45.655Z,99.90
2019-03-13T21:12:15.898Z,99.90
2019-03-13T21:14:46.262Z,99.90
2019-03-13T21:17:16.638Z,99.90
2019-03-13T21:19:47.013Z,99.90
2019-03-13T21:22:17.225Z,99.90
2019-03-13T21:24:47.472Z,99.90
2019-03-13T21:27:17.815Z,99.90
2019-03-13T21:29:48.205Z,99.90
2019-03-13T21:32:18.427Z,99.90
2019-03-13T21:34:48.724Z,99.90
2019-03-13T21:37:18.987Z,99.90
2019-03-13T21:39:49.260Z,99.90
2019-03-13T21:42:19.589Z,99.90
2019-03-13T21:44:49.981Z,99.90
2019-03-13T21:47:20.265Z,99.90
2019-03-13T21:49:50.487Z,99.90
2019-03-13T21:52:20.830Z,99.90
2019-03-13T21:54:52.261Z,99.90
2019-03-13T21:57:22.591Z,99.90
2019-03-13T21:59:52.873Z,99.90
2019-03-13T22:02:32.297Z,99.90
2019-03-13T22:04:55.166Z,99.90
2019-03-13T22:07:25.523Z,99.90
2019-03-13T22:09:58.526Z,99.90
2019-03-13T22:12:27.864Z,99.90
2019-03-13T22:14:58.120Z,99.90
2019-03-13T22:17:28.412Z,99.90
2019-03-13T22:19:58.841Z,99.90
2019-03-13T22:22:29.105Z,99.90
2019-03-13T22:24:59.410Z,99.90
2019-03-13T22:27:29.573Z,99.90
2019-03-13T22:29:59.875Z,99.90
2019-03-13T22:32:30.197Z,99.90
2019-03-13T22:35:00.516Z,99.90
2019-03-13T22:37:30.779Z,99.90
2019-03-13T22:40:01.113Z,99.90
2019-03-13T22:42:31.503Z,99.90
2019-03-13T22:45:01.675Z,99.90
2019-03-13T22:47:42.149Z,99.90
2019-03-13T22:50:04.159Z,99.90
2019-03-13T22:52:34.539Z,99.90
2019-03-13T22:55:05.280Z,99.90
2019-03-13T22:57:35.663Z,99.90
2019-03-13T23:00:12.587Z,99.90
2019-03-13T23:02:43.174Z,99.90
2019-03-13T23:05:13.459Z,99.90
2019-03-13T23:07:43.765Z,99.90
2019-03-13T23:10:31.851Z,99.90
2019-03-13T23:13:02.185Z,99.90
2019-03-13T23:15:32.415Z,99.90
2019-03-13T23:18:21.792Z,99.90
2019-03-13T23:20:52.155Z,99.90
2019-03-13T23:23:22.363Z,99.90
2019-03-13T23:25:52.817Z,99.90
2019-03-13T23:28:23.064Z,99.90
2019-03-13T23:30:53.342Z,99.90
2019-03-13T23:33:23.539Z,99.90
2019-03-13T23:35:53.859Z,99.90
2019-03-13T23:38:24.057Z,99.90
2019-03-13T23:40:54.410Z,99.90
2019-03-13T23:43:24.581Z,99.90
2019-03-13T23:45:54.931Z,99.90
2019-03-13T23:48:25.170Z,99.90
2019-03-13T23:50:55.433Z,99.90
2019-03-13T23:53:25.740Z,99.90
2019-03-13T23:55:56.016Z,99.90
2019-03-13T23:58:26.273Z,99.90
